Glasgow, United Kingdom

7:39 AM BST on September 28, 2016 (GMT +0100)
Glasgow | | Change Station

Elev 26 ft 55.87 °N, 4.43 °W | Updated 19 minutes ago

Scattered Clouds
Scattered Clouds
57 °F
Feels Like 57 °F
N
15
Wind Variable Wind from West

Today
High -- | Low -- °F
--% Chance of Precip.
Yesterday
High -- | Low -- °F
Precip. -- in
Pressure 29.95 in
Visibility 5.6 miles
Clouds Scattered Clouds 2000 ft
Dew Point 50 °F
Humidity 77%
Rainfall 0.00 in
Snow Depth Not available.
7:15 AM 6:59 PM
Waning Crescent, 7% visible
METAR EGPF 280620Z AUTO 26013KT 9000 SCT020 14/10 Q1014
Pressure 29.95 in
Visibility 5.6 miles
Clouds Scattered Clouds 2000 ft
Dew Point 50 °F
Humidity 77%
Rainfall 0.00 in
Snow Depth Not available.
7:15 AM 6:59 PM
Waning Crescent, 7% visible
METAR EGPF 280620Z AUTO 26013KT 9000 SCT020 14/10 Q1014

10-Day Weather Forecast

×

Almanac

Astronomy

Sep. 28, 2016 Rise Set
Actual Time
Civil Twilight
Nautical Twilight
Astronomical Twilight
Moon
Length of Visible Light
Length of Day
Tomorrow will be .
, % of the Moon is Illuminated

Today's Extremes

Country Highs Country Lows

Community

WunderPhotos

Upload Photos

1,942,216 photos uploaded!

WunderBlog® & News

Nearby

Air Quality

  Air Quality AQ Index Pollutant
Not available.

Snow Depth

Station Depth Elevation

Earthquake Activity

City Distance Mag. Time & Date
Minimum magnitude displayed is 2.5.

Coastal Water Temperatures

Place Temperature

Stations

Nearby Weather Stations

Station Location Temp. Windchill Dew Point Humidity Wind Precip. Elev Updated Type